sensor_id;sensor_type;location;lat;lon;timestamp;P1;durP1;ratioP1;P2;durP2;ratioP2
8009;SDS011;4050;51.160;6.938;2022-08-19T00:01:24;7.17;;;5.47;;
8009;SDS011;4050;51.160;6.938;2022-08-19T00:03:57;7.60;;;5.07;;
8009;SDS011;4050;51.160;6.938;2022-08-19T00:06:26;6.40;;;5.43;;
8009;SDS011;4050;51.160;6.938;2022-08-19T00:08:55;8.23;;;5.60;;
8009;SDS011;4050;51.160;6.938;2022-08-19T00:11:26;6.40;;;4.97;;
8009;SDS011;4050;51.160;6.938;2022-08-19T00:13:54;8.87;;;6.07;;
8009;SDS011;4050;51.160;6.938;2022-08-19T00:16:23;8.00;;;5.47;;
8009;SDS011;4050;51.160;6.938;2022-08-19T00:18:52;7.63;;;5.53;;
8009;SDS011;4050;51.160;6.938;2022-08-19T00:21:21;7.87;;;5.70;;
8009;SDS011;4050;51.160;6.938;2022-08-19T00:23:49;6.87;;;5.33;;
8009;SDS011;4050;51.160;6.938;2022-08-19T00:26:18;7.37;;;5.83;;
8009;SDS011;4050;51.160;6.938;2022-08-19T00:28:47;6.67;;;5.57;;
8009;SDS011;4050;51.160;6.938;2022-08-19T00:31:15;6.30;;;5.20;;
8009;SDS011;4050;51.160;6.938;2022-08-19T00:33:43;6.57;;;5.23;;
8009;SDS011;4050;51.160;6.938;2022-08-19T00:36:11;7.53;;;5.57;;
8009;SDS011;4050;51.160;6.938;2022-08-19T00:38:39;8.20;;;6.10;;
8009;SDS011;4050;51.160;6.938;2022-08-19T00:41:09;6.33;;;5.07;;
8009;SDS011;4050;51.160;6.938;2022-08-19T00:43:40;9.17;;;5.83;;
8009;SDS011;4050;51.160;6.938;2022-08-19T00:46:08;7.35;;;5.68;;
8009;SDS011;4050;51.160;6.938;2022-08-19T00:48:36;9.03;;;6.03;;
8009;SDS011;4050;51.160;6.938;2022-08-19T00:51:04;6.20;;;4.77;;
8009;SDS011;4050;51.160;6.938;2022-08-19T00:53:33;6.80;;;5.53;;
8009;SDS011;4050;51.160;6.938;2022-08-19T00:56:01;8.23;;;6.00;;
8009;SDS011;4050;51.160;6.938;2022-08-19T00:58:33;7.97;;;5.77;;
8009;SDS011;4050;51.160;6.938;2022-08-19T01:01:03;7.57;;;5.23;;
8009;SDS011;4050;51.160;6.938;2022-08-19T01:03:31;8.83;;;6.07;;
8009;SDS011;4050;51.160;6.938;2022-08-19T01:06:19;7.13;;;5.53;;
8009;SDS011;4050;51.160;6.938;2022-08-19T01:08:47;7.67;;;5.40;;
8009;SDS011;4050;51.160;6.938;2022-08-19T01:11:15;7.23;;;5.17;;
8009;SDS011;4050;51.160;6.938;2022-08-19T01:13:43;8.50;;;5.80;;
8009;SDS011;4050;51.160;6.938;2022-08-19T01:16:17;7.77;;;5.80;;
8009;SDS011;4050;51.160;6.938;2022-08-19T01:18:47;7.53;;;5.63;;
8009;SDS011;4050;51.160;6.938;2022-08-19T01:21:16;9.07;;;5.63;;
8009;SDS011;4050;51.160;6.938;2022-08-19T01:23:50;7.57;;;5.50;;
8009;SDS011;4050;51.160;6.938;2022-08-19T01:26:19;8.17;;;6.83;;
8009;SDS011;4050;51.160;6.938;2022-08-19T01:28:49;8.33;;;5.73;;
8009;SDS011;4050;51.160;6.938;2022-08-19T01:31:25;8.77;;;5.80;;
8009;SDS011;4050;51.160;6.938;2022-08-19T01:33:58;7.70;;;6.27;;
8009;SDS011;4050;51.160;6.938;2022-08-19T01:36:28;7.47;;;6.00;;
8009;SDS011;4050;51.160;6.938;2022-08-19T01:39:00;8.47;;;6.07;;
8009;SDS011;4050;51.160;6.938;2022-08-19T01:41:30;7.77;;;6.40;;
8009;SDS011;4050;51.160;6.938;2022-08-19T01:43:58;7.37;;;5.57;;
8009;SDS011;4050;51.160;6.938;2022-08-19T01:46:43;8.13;;;6.00;;
8009;SDS011;4050;51.160;6.938;2022-08-19T01:49:11;6.90;;;5.90;;
8009;SDS011;4050;51.160;6.938;2022-08-19T01:51:39;7.60;;;5.37;;
8009;SDS011;4050;51.160;6.938;2022-08-19T01:54:09;7.63;;;5.57;;
8009;SDS011;4050;51.160;6.938;2022-08-19T01:56:38;7.47;;;5.60;;
8009;SDS011;4050;51.160;6.938;2022-08-19T01:59:08;7.13;;;5.97;;
8009;SDS011;4050;51.160;6.938;2022-08-19T02:01:38;8.37;;;5.87;;
8009;SDS011;4050;51.160;6.938;2022-08-19T02:04:06;6.20;;;5.57;;
8009;SDS011;4050;51.160;6.938;2022-08-19T02:06:35;8.13;;;5.90;;
8009;SDS011;4050;51.160;6.938;2022-08-19T02:09:06;9.43;;;6.37;;
8009;SDS011;4050;51.160;6.938;2022-08-19T02:11:36;8.67;;;5.73;;
8009;SDS011;4050;51.160;6.938;2022-08-19T02:14:05;8.70;;;6.27;;
8009;SDS011;4050;51.160;6.938;2022-08-19T02:16:35;7.87;;;5.50;;
8009;SDS011;4050;51.160;6.938;2022-08-19T02:19:04;7.47;;;5.67;;
8009;SDS011;4050;51.160;6.938;2022-08-19T02:21:32;9.07;;;5.67;;
8009;SDS011;4050;51.160;6.938;2022-08-19T02:24:00;8.63;;;5.67;;
8009;SDS011;4050;51.160;6.938;2022-08-19T02:26:29;7.80;;;5.50;;
8009;SDS011;4050;51.160;6.938;2022-08-19T02:28:58;7.03;;;5.67;;
8009;SDS011;4050;51.160;6.938;2022-08-19T02:31:26;6.87;;;5.10;;
8009;SDS011;4050;51.160;6.938;2022-08-19T02:33:55;7.47;;;6.00;;
8009;SDS011;4050;51.160;6.938;2022-08-19T02:36:24;7.40;;;5.27;;
8009;SDS011;4050;51.160;6.938;2022-08-19T02:38:53;7.27;;;5.07;;
8009;SDS011;4050;51.160;6.938;2022-08-19T02:41:21;8.17;;;6.10;;
8009;SDS011;4050;51.160;6.938;2022-08-19T02:43:52;6.80;;;6.10;;
8009;SDS011;4050;51.160;6.938;2022-08-19T02:46:42;8.10;;;6.30;;
8009;SDS011;4050;51.160;6.938;2022-08-19T02:49:12;8.87;;;6.50;;
8009;SDS011;4050;51.160;6.938;2022-08-19T02:51:41;7.40;;;6.00;;
8009;SDS011;4050;51.160;6.938;2022-08-19T02:54:11;8.03;;;6.13;;
8009;SDS011;4050;51.160;6.938;2022-08-19T02:56:40;9.07;;;6.30;;
8009;SDS011;4050;51.160;6.938;2022-08-19T02:59:08;6.90;;;5.80;;
8009;SDS011;4050;51.160;6.938;2022-08-19T03:01:37;7.30;;;5.90;;
8009;SDS011;4050;51.160;6.938;2022-08-19T03:04:10;10.17;;;6.33;;
8009;SDS011;4050;51.160;6.938;2022-08-19T03:06:41;8.23;;;6.50;;
8009;SDS011;4050;51.160;6.938;2022-08-19T03:09:10;9.67;;;6.77;;
8009;SDS011;4050;51.160;6.938;2022-08-19T03:11:39;8.90;;;6.17;;
8009;SDS011;4050;51.160;6.938;2022-08-19T03:14:07;7.73;;;5.93;;
8009;SDS011;4050;51.160;6.938;2022-08-19T03:16:40;8.00;;;5.67;;
8009;SDS011;4050;51.160;6.938;2022-08-19T03:19:10;8.53;;;6.30;;
8009;SDS011;4050;51.160;6.938;2022-08-19T03:21:39;8.30;;;6.10;;
8009;SDS011;4050;51.160;6.938;2022-08-19T03:24:07;7.90;;;5.77;;
8009;SDS011;4050;51.160;6.938;2022-08-19T03:26:38;6.63;;;5.37;;
8009;SDS011;4050;51.160;6.938;2022-08-19T03:29:07;7.40;;;5.77;;
8009;SDS011;4050;51.160;6.938;2022-08-19T03:31:38;9.97;;;6.03;;
8009;SDS011;4050;51.160;6.938;2022-08-19T03:34:19;9.30;;;5.53;;
8009;SDS011;4050;51.160;6.938;2022-08-19T03:36:48;10.47;;;5.87;;
8009;SDS011;4050;51.160;6.938;2022-08-19T03:39:17;7.23;;;5.10;;
8009;SDS011;4050;51.160;6.938;2022-08-19T03:41:46;8.60;;;6.00;;
8009;SDS011;4050;51.160;6.938;2022-08-19T03:44:35;7.67;;;5.53;;
8009;SDS011;4050;51.160;6.938;2022-08-19T03:47:04;9.40;;;5.73;;
8009;SDS011;4050;51.160;6.938;2022-08-19T03:49:34;8.00;;;5.60;;
8009;SDS011;4050;51.160;6.938;2022-08-19T03:52:03;6.80;;;5.83;;
8009;SDS011;4050;51.160;6.938;2022-08-19T03:54:33;6.20;;;5.57;;
8009;SDS011;4050;51.160;6.938;2022-08-19T03:57:02;7.77;;;5.73;;
8009;SDS011;4050;51.160;6.938;2022-08-19T03:59:34;8.37;;;6.63;;
8009;SDS011;4050;51.160;6.938;2022-08-19T04:02:05;8.13;;;6.07;;
8009;SDS011;4050;51.160;6.938;2022-08-19T04:04:37;10.20;;;7.63;;
8009;SDS011;4050;51.160;6.938;2022-08-19T04:07:06;9.00;;;6.50;;
8009;SDS011;4050;51.160;6.938;2022-08-19T04:09:36;9.20;;;7.13;;
8009;SDS011;4050;51.160;6.938;2022-08-19T04:12:04;9.93;;;7.10;;
8009;SDS011;4050;51.160;6.938;2022-08-19T04:14:33;11.27;;;8.27;;
8009;SDS011;4050;51.160;6.938;2022-08-19T04:17:02;9.83;;;6.67;;
8009;SDS011;4050;51.160;6.938;2022-08-19T04:19:31;11.33;;;7.80;;
8009;SDS011;4050;51.160;6.938;2022-08-19T04:22:02;10.13;;;7.20;;
8009;SDS011;4050;51.160;6.938;2022-08-19T04:24:30;11.47;;;7.77;;
8009;SDS011;4050;51.160;6.938;2022-08-19T04:26:59;12.57;;;7.63;;
8009;SDS011;4050;51.160;6.938;2022-08-19T04:29:28;13.57;;;8.07;;
8009;SDS011;4050;51.160;6.938;2022-08-19T04:31:56;10.80;;;7.63;;
8009;SDS011;4050;51.160;6.938;2022-08-19T04:34:34;8.97;;;7.20;;
8009;SDS011;4050;51.160;6.938;2022-08-19T04:37:25;8.13;;;6.57;;
8009;SDS011;4050;51.160;6.938;2022-08-19T04:40:01;9.73;;;7.27;;
8009;SDS011;4050;51.160;6.938;2022-08-19T04:42:48;10.37;;;7.13;;
8009;SDS011;4050;51.160;6.938;2022-08-19T04:45:15;9.53;;;7.17;;
8009;SDS011;4050;51.160;6.938;2022-08-19T04:47:43;9.03;;;6.10;;
8009;SDS011;4050;51.160;6.938;2022-08-19T04:50:24;11.67;;;7.77;;
8009;SDS011;4050;51.160;6.938;2022-08-19T04:52:54;10.10;;;7.53;;
8009;SDS011;4050;51.160;6.938;2022-08-19T04:55:23;10.80;;;7.70;;
8009;SDS011;4050;51.160;6.938;2022-08-19T04:57:52;11.40;;;7.83;;
8009;SDS011;4050;51.160;6.938;2022-08-19T05:00:20;13.03;;;8.33;;
8009;SDS011;4050;51.160;6.938;2022-08-19T05:02:48;11.63;;;8.70;;
8009;SDS011;4050;51.160;6.938;2022-08-19T05:05:16;11.57;;;8.30;;
8009;SDS011;4050;51.160;6.938;2022-08-19T05:07:44;10.90;;;8.10;;
8009;SDS011;4050;51.160;6.938;2022-08-19T05:10:13;13.13;;;8.87;;
8009;SDS011;4050;51.160;6.938;2022-08-19T05:12:40;11.90;;;8.10;;
8009;SDS011;4050;51.160;6.938;2022-08-19T05:15:09;11.23;;;7.70;;
8009;SDS011;4050;51.160;6.938;2022-08-19T05:17:37;10.93;;;7.73;;
8009;SDS011;4050;51.160;6.938;2022-08-19T05:20:25;12.30;;;8.20;;
8009;SDS011;4050;51.160;6.938;2022-08-19T05:23:10;14.57;;;8.30;;
8009;SDS011;4050;51.160;6.938;2022-08-19T05:25:49;12.03;;;8.23;;
8009;SDS011;4050;51.160;6.938;2022-08-19T05:28:18;12.77;;;8.37;;
8009;SDS011;4050;51.160;6.938;2022-08-19T05:30:45;11.50;;;8.50;;
8009;SDS011;4050;51.160;6.938;2022-08-19T05:33:14;10.80;;;8.20;;
8009;SDS011;4050;51.160;6.938;2022-08-19T05:35:42;13.90;;;8.70;;
8009;SDS011;4050;51.160;6.938;2022-08-19T05:38:10;10.67;;;7.77;;
8009;SDS011;4050;51.160;6.938;2022-08-19T05:40:38;12.43;;;8.27;;
8009;SDS011;4050;51.160;6.938;2022-08-19T05:43:08;11.23;;;7.90;;
8009;SDS011;4050;51.160;6.938;2022-08-19T05:45:40;10.93;;;7.57;;
8009;SDS011;4050;51.160;6.938;2022-08-19T05:48:09;11.50;;;7.63;;
8009;SDS011;4050;51.160;6.938;2022-08-19T05:50:38;10.13;;;7.87;;
8009;SDS011;4050;51.160;6.938;2022-08-19T05:53:08;10.77;;;8.03;;
8009;SDS011;4050;51.160;6.938;2022-08-19T05:55:36;13.03;;;9.43;;
8009;SDS011;4050;51.160;6.938;2022-08-19T05:58:05;14.27;;;10.30;;
8009;SDS011;4050;51.160;6.938;2022-08-19T06:00:35;14.63;;;10.57;;
8009;SDS011;4050;51.160;6.938;2022-08-19T06:03:04;15.17;;;10.67;;
8009;SDS011;4050;51.160;6.938;2022-08-19T06:05:37;16.47;;;10.93;;
8009;SDS011;4050;51.160;6.938;2022-08-19T06:08:14;15.20;;;10.80;;
8009;SDS011;4050;51.160;6.938;2022-08-19T06:10:44;13.80;;;10.83;;
8009;SDS011;4050;51.160;6.938;2022-08-19T06:13:12;16.07;;;10.10;;
8009;SDS011;4050;51.160;6.938;2022-08-19T06:15:41;17.77;;;12.03;;
8009;SDS011;4050;51.160;6.938;2022-08-19T06:18:10;17.87;;;12.70;;
8009;SDS011;4050;51.160;6.938;2022-08-19T06:20:38;18.27;;;12.90;;
8009;SDS011;4050;51.160;6.938;2022-08-19T06:23:21;16.90;;;12.00;;
8009;SDS011;4050;51.160;6.938;2022-08-19T06:25:49;16.37;;;11.73;;
8009;SDS011;4050;51.160;6.938;2022-08-19T06:28:17;19.53;;;13.00;;
8009;SDS011;4050;51.160;6.938;2022-08-19T06:30:46;19.67;;;13.43;;
8009;SDS011;4050;51.160;6.938;2022-08-19T06:33:14;19.67;;;13.50;;
8009;SDS011;4050;51.160;6.938;2022-08-19T06:35:43;21.80;;;13.43;;
8009;SDS011;4050;51.160;6.938;2022-08-19T06:38:11;20.87;;;13.90;;
8009;SDS011;4050;51.160;6.938;2022-08-19T06:40:39;20.67;;;13.57;;
8009;SDS011;4050;51.160;6.938;2022-08-19T06:43:10;21.00;;;14.23;;
8009;SDS011;4050;51.160;6.938;2022-08-19T06:45:39;21.13;;;14.93;;
8009;SDS011;4050;51.160;6.938;2022-08-19T06:48:08;20.80;;;13.30;;
8009;SDS011;4050;51.160;6.938;2022-08-19T06:50:36;19.27;;;12.73;;
8009;SDS011;4050;51.160;6.938;2022-08-19T06:53:06;17.93;;;13.23;;
8009;SDS011;4050;51.160;6.938;2022-08-19T06:55:34;20.10;;;13.90;;
8009;SDS011;4050;51.160;6.938;2022-08-19T06:58:03;21.10;;;13.30;;
8009;SDS011;4050;51.160;6.938;2022-08-19T07:00:32;26.23;;;15.53;;
8009;SDS011;4050;51.160;6.938;2022-08-19T07:03:00;21.67;;;13.97;;
8009;SDS011;4050;51.160;6.938;2022-08-19T07:05:38;19.60;;;13.73;;
8009;SDS011;4050;51.160;6.938;2022-08-19T07:08:11;20.77;;;14.83;;
8009;SDS011;4050;51.160;6.938;2022-08-19T07:10:42;22.57;;;14.77;;
8009;SDS011;4050;51.160;6.938;2022-08-19T07:13:10;22.60;;;14.80;;
8009;SDS011;4050;51.160;6.938;2022-08-19T07:15:38;21.73;;;13.52;;
8009;SDS011;4050;51.160;6.938;2022-08-19T07:18:06;20.17;;;14.13;;
8009;SDS011;4050;51.160;6.938;2022-08-19T07:20:38;22.38;;;15.77;;
8009;SDS011;4050;51.160;6.938;2022-08-19T07:23:07;22.00;;;14.50;;
8009;SDS011;4050;51.160;6.938;2022-08-19T07:25:36;23.85;;;14.85;;
8009;SDS011;4050;51.160;6.938;2022-08-19T07:28:06;19.45;;;14.85;;
8009;SDS011;4050;51.160;6.938;2022-08-19T07:30:49;22.13;;;14.23;;
8009;SDS011;4050;51.160;6.938;2022-08-19T07:33:18;20.45;;;13.70;;
8009;SDS011;4050;51.160;6.938;2022-08-19T07:35:47;21.42;;;13.63;;
8009;SDS011;4050;51.160;6.938;2022-08-19T07:38:16;23.20;;;14.75;;
8009;SDS011;4050;51.160;6.938;2022-08-19T07:40:44;20.88;;;13.32;;
8009;SDS011;4050;51.160;6.938;2022-08-19T07:43:12;20.87;;;13.63;;
8009;SDS011;4050;51.160;6.938;2022-08-19T07:45:43;20.00;;;13.77;;
8009;SDS011;4050;51.160;6.938;2022-08-19T07:48:13;19.50;;;13.53;;
8009;SDS011;4050;51.160;6.938;2022-08-19T07:50:41;18.20;;;13.18;;
8009;SDS011;4050;51.160;6.938;2022-08-19T07:53:10;21.88;;;13.20;;
8009;SDS011;4050;51.160;6.938;2022-08-19T07:55:39;20.55;;;12.80;;
8009;SDS011;4050;51.160;6.938;2022-08-19T07:58:10;19.85;;;12.38;;
8009;SDS011;4050;51.160;6.938;2022-08-19T08:00:39;20.13;;;12.13;;
8009;SDS011;4050;51.160;6.938;2022-08-19T08:03:07;20.63;;;13.13;;
8009;SDS011;4050;51.160;6.938;2022-08-19T08:05:35;22.30;;;13.95;;
8009;SDS011;4050;51.160;6.938;2022-08-19T08:08:22;18.30;;;12.80;;
8009;SDS011;4050;51.160;6.938;2022-08-19T08:11:12;20.52;;;12.30;;
8009;SDS011;4050;51.160;6.938;2022-08-19T08:13:42;17.98;;;11.50;;
8009;SDS011;4050;51.160;6.938;2022-08-19T08:16:11;19.88;;;13.20;;
8009;SDS011;4050;51.160;6.938;2022-08-19T08:18:39;15.18;;;11.43;;
8009;SDS011;4050;51.160;6.938;2022-08-19T08:21:08;13.98;;;10.48;;
8009;SDS011;4050;51.160;6.938;2022-08-19T08:23:37;15.40;;;10.98;;
8009;SDS011;4050;51.160;6.938;2022-08-19T08:26:06;15.20;;;10.90;;
8009;SDS011;4050;51.160;6.938;2022-08-19T08:28:34;16.23;;;11.02;;
8009;SDS011;4050;51.160;6.938;2022-08-19T08:31:03;14.52;;;10.00;;
8009;SDS011;4050;51.160;6.938;2022-08-19T08:33:35;22.08;;;14.32;;
8009;SDS011;4050;51.160;6.938;2022-08-19T08:36:03;14.63;;;10.90;;
8009;SDS011;4050;51.160;6.938;2022-08-19T08:38:32;14.27;;;9.82;;
8009;SDS011;4050;51.160;6.938;2022-08-19T08:41:09;13.48;;;9.80;;
8009;SDS011;4050;51.160;6.938;2022-08-19T08:43:46;14.10;;;9.57;;
8009;SDS011;4050;51.160;6.938;2022-08-19T08:46:19;15.32;;;9.85;;
8009;SDS011;4050;51.160;6.938;2022-08-19T08:48:59;15.30;;;10.00;;
8009;SDS011;4050;51.160;6.938;2022-08-19T08:51:36;14.38;;;10.07;;
8009;SDS011;4050;51.160;6.938;2022-08-19T08:54:12;14.20;;;10.95;;
8009;SDS011;4050;51.160;6.938;2022-08-19T08:56:45;14.63;;;11.05;;
8009;SDS011;4050;51.160;6.938;2022-08-19T08:59:18;14.80;;;10.88;;
8009;SDS011;4050;51.160;6.938;2022-08-19T09:01:49;13.48;;;10.18;;
8009;SDS011;4050;51.160;6.938;2022-08-19T09:04:18;11.82;;;9.93;;
8009;SDS011;4050;51.160;6.938;2022-08-19T09:06:49;12.05;;;9.15;;
8009;SDS011;4050;51.160;6.938;2022-08-19T09:09:23;12.75;;;9.55;;
8009;SDS011;4050;51.160;6.938;2022-08-19T09:12:02;12.35;;;9.90;;
8009;SDS011;4050;51.160;6.938;2022-08-19T09:14:38;15.52;;;10.88;;
8009;SDS011;4050;51.160;6.938;2022-08-19T09:17:16;15.05;;;10.10;;
8009;SDS011;4050;51.160;6.938;2022-08-19T09:19:49;13.60;;;9.52;;
8009;SDS011;4050;51.160;6.938;2022-08-19T09:22:18;15.63;;;10.40;;
8009;SDS011;4050;51.160;6.938;2022-08-19T09:24:52;13.35;;;8.85;;
8009;SDS011;4050;51.160;6.938;2022-08-19T09:27:22;15.38;;;10.45;;
8009;SDS011;4050;51.160;6.938;2022-08-19T09:30:08;15.13;;;9.65;;
8009;SDS011;4050;51.160;6.938;2022-08-19T09:32:40;15.13;;;9.80;;
8009;SDS011;4050;51.160;6.938;2022-08-19T09:35:09;14.10;;;10.48;;
8009;SDS011;4050;51.160;6.938;2022-08-19T09:37:38;18.27;;;11.93;;
8009;SDS011;4050;51.160;6.938;2022-08-19T09:40:08;15.50;;;9.93;;
8009;SDS011;4050;51.160;6.938;2022-08-19T09:42:38;16.23;;;9.57;;
8009;SDS011;4050;51.160;6.938;2022-08-19T09:45:16;15.18;;;10.23;;
8009;SDS011;4050;51.160;6.938;2022-08-19T09:47:46;12.95;;;8.73;;
8009;SDS011;4050;51.160;6.938;2022-08-19T09:50:15;12.48;;;8.60;;
8009;SDS011;4050;51.160;6.938;2022-08-19T09:52:42;12.80;;;8.80;;
8009;SDS011;4050;51.160;6.938;2022-08-19T09:55:22;14.02;;;9.48;;
8009;SDS011;4050;51.160;6.938;2022-08-19T09:57:59;14.02;;;9.35;;
8009;SDS011;4050;51.160;6.938;2022-08-19T10:00:28;14.23;;;9.57;;
8009;SDS011;4050;51.160;6.938;2022-08-19T10:02:56;14.38;;;9.75;;
8009;SDS011;4050;51.160;6.938;2022-08-19T10:05:26;11.00;;;7.68;;
8009;SDS011;4050;51.160;6.938;2022-08-19T10:08:14;11.55;;;7.90;;
8009;SDS011;4050;51.160;6.938;2022-08-19T10:10:43;9.88;;;8.10;;
8009;SDS011;4050;51.160;6.938;2022-08-19T10:13:14;11.07;;;8.27;;
8009;SDS011;4050;51.160;6.938;2022-08-19T10:15:43;10.23;;;7.60;;
8009;SDS011;4050;51.160;6.938;2022-08-19T10:18:14;8.38;;;6.88;;
8009;SDS011;4050;51.160;6.938;2022-08-19T10:20:44;7.90;;;6.75;;
8009;SDS011;4050;51.160;6.938;2022-08-19T10:23:17;8.82;;;6.50;;
8009;SDS011;4050;51.160;6.938;2022-08-19T10:25:46;8.45;;;7.28;;
8009;SDS011;4050;51.160;6.938;2022-08-19T10:28:16;8.02;;;6.22;;
8009;SDS011;4050;51.160;6.938;2022-08-19T10:30:44;9.20;;;7.00;;
8009;SDS011;4050;51.160;6.938;2022-08-19T10:33:13;10.20;;;7.22;;
8009;SDS011;4050;51.160;6.938;2022-08-19T10:36:01;10.48;;;7.47;;
8009;SDS011;4050;51.160;6.938;2022-08-19T10:38:30;8.60;;;7.28;;
8009;SDS011;4050;51.160;6.938;2022-08-19T10:41:06;8.48;;;6.55;;
8009;SDS011;4050;51.160;6.938;2022-08-19T10:43:35;7.30;;;6.15;;
8009;SDS011;4050;51.160;6.938;2022-08-19T10:46:06;7.82;;;5.90;;
8009;SDS011;4050;51.160;6.938;2022-08-19T10:48:42;7.60;;;6.07;;
8009;SDS011;4050;51.160;6.938;2022-08-19T10:51:11;8.30;;;6.82;;
8009;SDS011;4050;51.160;6.938;2022-08-19T10:53:57;7.35;;;5.85;;
8009;SDS011;4050;51.160;6.938;2022-08-19T10:56:26;6.53;;;5.25;;
8009;SDS011;4050;51.160;6.938;2022-08-19T10:59:16;7.05;;;5.15;;
8009;SDS011;4050;51.160;6.938;2022-08-19T11:01:45;7.45;;;5.65;;
8009;SDS011;4050;51.160;6.938;2022-08-19T11:04:16;9.27;;;7.25;;
8009;SDS011;4050;51.160;6.938;2022-08-19T11:06:47;8.30;;;6.15;;
8009;SDS011;4050;51.160;6.938;2022-08-19T11:09:16;8.13;;;6.03;;
8009;SDS011;4050;51.160;6.938;2022-08-19T11:11:45;8.10;;;6.30;;
8009;SDS011;4050;51.160;6.938;2022-08-19T11:14:15;8.35;;;5.28;;
8009;SDS011;4050;51.160;6.938;2022-08-19T11:16:47;6.97;;;5.63;;
8009;SDS011;4050;51.160;6.938;2022-08-19T11:19:16;7.35;;;5.30;;
8009;SDS011;4050;51.160;6.938;2022-08-19T11:21:45;6.13;;;4.53;;
8009;SDS011;4050;51.160;6.938;2022-08-19T11:24:17;7.03;;;4.53;;
8009;SDS011;4050;51.160;6.938;2022-08-19T11:26:47;9.00;;;5.68;;
8009;SDS011;4050;51.160;6.938;2022-08-19T11:29:18;7.10;;;5.05;;
8009;SDS011;4050;51.160;6.938;2022-08-19T11:31:51;6.60;;;5.28;;
8009;SDS011;4050;51.160;6.938;2022-08-19T11:34:21;7.18;;;5.30;;
8009;SDS011;4050;51.160;6.938;2022-08-19T11:36:54;8.45;;;5.72;;
8009;SDS011;4050;51.160;6.938;2022-08-19T11:39:25;7.32;;;5.55;;
8009;SDS011;4050;51.160;6.938;2022-08-19T11:41:55;7.22;;;4.75;;
8009;SDS011;4050;51.160;6.938;2022-08-19T11:44:26;7.55;;;5.28;;
8009;SDS011;4050;51.160;6.938;2022-08-19T11:46:56;7.28;;;4.60;;
8009;SDS011;4050;51.160;6.938;2022-08-19T11:49:34;5.53;;;4.75;;
8009;SDS011;4050;51.160;6.938;2022-08-19T11:52:02;6.53;;;4.65;;
8009;SDS011;4050;51.160;6.938;2022-08-19T11:54:30;5.35;;;4.00;;
8009;SDS011;4050;51.160;6.938;2022-08-19T11:56:58;7.55;;;5.00;;
8009;SDS011;4050;51.160;6.938;2022-08-19T11:59:28;5.60;;;4.32;;
8009;SDS011;4050;51.160;6.938;2022-08-19T12:01:56;7.43;;;4.32;;
8009;SDS011;4050;51.160;6.938;2022-08-19T12:04:25;4.60;;;3.90;;
8009;SDS011;4050;51.160;6.938;2022-08-19T12:06:53;6.70;;;4.45;;
8009;SDS011;4050;51.160;6.938;2022-08-19T12:09:20;4.20;;;3.50;;
8009;SDS011;4050;51.160;6.938;2022-08-19T12:11:49;4.03;;;3.45;;
8009;SDS011;4050;51.160;6.938;2022-08-19T12:14:17;3.95;;;3.38;;
8009;SDS011;4050;51.160;6.938;2022-08-19T12:16:47;5.35;;;3.65;;
8009;SDS011;4050;51.160;6.938;2022-08-19T12:19:17;4.38;;;3.72;;
8009;SDS011;4050;51.160;6.938;2022-08-19T12:21:47;4.95;;;4.03;;
8009;SDS011;4050;51.160;6.938;2022-08-19T12:24:16;5.18;;;4.47;;
8009;SDS011;4050;51.160;6.938;2022-08-19T12:26:48;5.53;;;4.05;;
8009;SDS011;4050;51.160;6.938;2022-08-19T12:29:18;7.28;;;3.72;;
8009;SDS011;4050;51.160;6.938;2022-08-19T12:31:50;4.35;;;3.13;;
8009;SDS011;4050;51.160;6.938;2022-08-19T12:34:18;4.25;;;3.30;;
8009;SDS011;4050;51.160;6.938;2022-08-19T12:36:46;5.63;;;4.25;;
8009;SDS011;4050;51.160;6.938;2022-08-19T12:39:15;5.57;;;3.83;;
8009;SDS011;4050;51.160;6.938;2022-08-19T12:41:43;5.05;;;3.33;;
8009;SDS011;4050;51.160;6.938;2022-08-19T12:44:20;4.10;;;3.42;;
8009;SDS011;4050;51.160;6.938;2022-08-19T12:46:58;4.78;;;3.03;;
8009;SDS011;4050;51.160;6.938;2022-08-19T12:49:29;5.03;;;3.45;;
8009;SDS011;4050;51.160;6.938;2022-08-19T12:52:19;5.97;;;4.20;;
8009;SDS011;4050;51.160;6.938;2022-08-19T12:54:48;6.05;;;4.05;;
8009;SDS011;4050;51.160;6.938;2022-08-19T12:57:19;9.38;;;3.60;;
8009;SDS011;4050;51.160;6.938;2022-08-19T12:59:56;3.22;;;2.88;;
8009;SDS011;4050;51.160;6.938;2022-08-19T13:02:26;4.63;;;3.22;;
8009;SDS011;4050;51.160;6.938;2022-08-19T13:04:54;6.25;;;3.20;;
8009;SDS011;4050;51.160;6.938;2022-08-19T13:07:22;4.35;;;3.33;;
8009;SDS011;4050;51.160;6.938;2022-08-19T13:09:50;4.63;;;3.13;;
8009;SDS011;4050;51.160;6.938;2022-08-19T13:12:19;4.65;;;3.92;;
8009;SDS011;4050;51.160;6.938;2022-08-19T13:14:50;4.82;;;3.00;;
8009;SDS011;4050;51.160;6.938;2022-08-19T13:17:18;4.35;;;3.20;;
8009;SDS011;4050;51.160;6.938;2022-08-19T13:19:48;7.60;;;3.45;;
8009;SDS011;4050;51.160;6.938;2022-08-19T13:22:16;3.58;;;2.78;;
8009;SDS011;4050;51.160;6.938;2022-08-19T13:24:44;7.07;;;3.17;;
8009;SDS011;4050;51.160;6.938;2022-08-19T13:27:13;3.15;;;2.45;;
8009;SDS011;4050;51.160;6.938;2022-08-19T13:29:41;3.67;;;2.78;;
8009;SDS011;4050;51.160;6.938;2022-08-19T13:32:28;5.03;;;2.90;;
8009;SDS011;4050;51.160;6.938;2022-08-19T13:35:15;4.10;;;2.60;;
8009;SDS011;4050;51.160;6.938;2022-08-19T13:37:44;3.50;;;2.40;;
8009;SDS011;4050;51.160;6.938;2022-08-19T13:40:13;4.78;;;2.25;;
8009;SDS011;4050;51.160;6.938;2022-08-19T13:42:45;3.65;;;2.53;;
8009;SDS011;4050;51.160;6.938;2022-08-19T13:45:14;3.97;;;2.58;;
8009;SDS011;4050;51.160;6.938;2022-08-19T13:47:45;3.00;;;2.60;;
8009;SDS011;4050;51.160;6.938;2022-08-19T13:50:13;5.07;;;2.58;;
8009;SDS011;4050;51.160;6.938;2022-08-19T13:52:44;3.15;;;2.53;;
8009;SDS011;4050;51.160;6.938;2022-08-19T13:55:13;3.75;;;2.95;;
8009;SDS011;4050;51.160;6.938;2022-08-19T13:57:50;4.72;;;3.10;;
8009;SDS011;4050;51.160;6.938;2022-08-19T14:00:19;2.88;;;2.65;;
8009;SDS011;4050;51.160;6.938;2022-08-19T14:02:49;4.35;;;2.55;;
8009;SDS011;4050;51.160;6.938;2022-08-19T14:05:20;2.88;;;2.53;;
8009;SDS011;4050;51.160;6.938;2022-08-19T14:07:48;4.70;;;2.35;;
8009;SDS011;4050;51.160;6.938;2022-08-19T14:10:16;3.05;;;2.33;;
8009;SDS011;4050;51.160;6.938;2022-08-19T14:12:45;3.30;;;2.25;;
8009;SDS011;4050;51.160;6.938;2022-08-19T14:15:13;2.95;;;2.40;;
8009;SDS011;4050;51.160;6.938;2022-08-19T14:17:43;2.70;;;1.55;;
8009;SDS011;4050;51.160;6.938;2022-08-19T14:20:14;2.92;;;2.22;;
8009;SDS011;4050;51.160;6.938;2022-08-19T14:22:45;4.10;;;2.13;;
8009;SDS011;4050;51.160;6.938;2022-08-19T14:25:15;3.25;;;2.15;;
8009;SDS011;4050;51.160;6.938;2022-08-19T14:27:46;2.40;;;1.90;;
8009;SDS011;4050;51.160;6.938;2022-08-19T14:30:15;2.60;;;2.25;;
8009;SDS011;4050;51.160;6.938;2022-08-19T14:32:45;2.50;;;2.17;;
8009;SDS011;4050;51.160;6.938;2022-08-19T14:35:13;2.63;;;2.13;;
8009;SDS011;4050;51.160;6.938;2022-08-19T14:37:43;3.10;;;1.92;;
8009;SDS011;4050;51.160;6.938;2022-08-19T14:40:12;3.78;;;2.22;;
8009;SDS011;4050;51.160;6.938;2022-08-19T14:42:42;3.08;;;2.60;;
8009;SDS011;4050;51.160;6.938;2022-08-19T14:45:11;2.78;;;2.15;;
8009;SDS011;4050;51.160;6.938;2022-08-19T14:47:39;2.08;;;1.88;;
8009;SDS011;4050;51.160;6.938;2022-08-19T14:50:10;3.03;;;2.28;;
8009;SDS011;4050;51.160;6.938;2022-08-19T14:52:45;3.65;;;2.70;;
8009;SDS011;4050;51.160;6.938;2022-08-19T14:55:15;3.30;;;2.63;;
8009;SDS011;4050;51.160;6.938;2022-08-19T14:57:44;2.90;;;2.20;;
8009;SDS011;4050;51.160;6.938;2022-08-19T15:00:13;2.97;;;2.22;;
8009;SDS011;4050;51.160;6.938;2022-08-19T15:02:41;2.30;;;1.73;;
8009;SDS011;4050;51.160;6.938;2022-08-19T15:05:10;2.88;;;2.08;;
8009;SDS011;4050;51.160;6.938;2022-08-19T15:07:39;2.53;;;1.75;;
8009;SDS011;4050;51.160;6.938;2022-08-19T15:10:10;4.20;;;1.73;;
8009;SDS011;4050;51.160;6.938;2022-08-19T15:12:39;2.00;;;1.70;;
8009;SDS011;4050;51.160;6.938;2022-08-19T15:15:09;2.58;;;1.95;;
8009;SDS011;4050;51.160;6.938;2022-08-19T15:17:40;3.67;;;1.90;;
8009;SDS011;4050;51.160;6.938;2022-08-19T15:20:12;1.88;;;1.48;;
8009;SDS011;4050;51.160;6.938;2022-08-19T15:22:42;2.33;;;1.30;;
8009;SDS011;4050;51.160;6.938;2022-08-19T15:25:12;2.28;;;1.38;;
8009;SDS011;4050;51.160;6.938;2022-08-19T15:27:41;1.77;;;1.38;;
8009;SDS011;4050;51.160;6.938;2022-08-19T15:30:10;2.75;;;1.92;;